createdAt,value
2023-03-03T00:01:11.434Z,67.07
2023-03-03T00:04:33.181Z,67.02
2023-03-03T00:07:12.843Z,66.97
2023-03-03T00:09:45.325Z,66.74
2023-03-03T00:12:31.488Z,66.84
2023-03-03T00:19:23.343Z,67.27
2023-03-03T00:26:56.725Z,67.47
2023-03-03T00:52:01.889Z,67.57
2023-03-03T00:54:34.261Z,67.50
2023-03-03T00:57:06.752Z,67.29
2023-03-03T00:59:46.107Z,67.07
2023-03-03T01:02:18.789Z,67.41
2023-03-03T01:04:58.263Z,68.12
2023-03-03T01:07:30.718Z,67.98
2023-03-03T01:10:11.826Z,67.85
2023-03-03T01:12:58.587Z,68.23
2023-03-03T01:15:45.304Z,68.47
2023-03-03T01:22:50.007Z,68.62
2023-03-03T01:25:22.540Z,68.94
2023-03-03T01:32:27.374Z,70.20
2023-03-03T01:39:51.410Z,71.18
2023-03-03T01:42:30.836Z,71.68
2023-03-03T01:50:34.625Z,72.06
2023-03-03T01:57:40.613Z,72.38
2023-03-03T02:09:28.284Z,73.40
2023-03-03T02:16:12.514Z,74.15
2023-03-03T02:18:45.509Z,73.94
2023-03-03T02:30:52.743Z,74.34
2023-03-03T02:33:46.782Z,74.59
2023-03-03T02:37:10.899Z,74.73
2023-03-03T02:40:48.749Z,75.41
2023-03-03T02:52:22.157Z,74.85
2023-03-03T02:59:45.120Z,75.73
2023-03-03T03:02:47.101Z,75.87
2023-03-03T03:07:11.913Z,75.70
2023-03-03T03:09:55.017Z,75.60
2023-03-03T03:12:27.647Z,75.97
2023-03-03T03:15:10.132Z,76.07
2023-03-03T03:18:32.246Z,75.97
2023-03-03T03:21:51.869Z,76.10
2023-03-03T03:29:57.458Z,76.62
2023-03-03T03:32:34.814Z,77.06
2023-03-03T03:35:08.440Z,77.26
2023-03-03T03:42:10.465Z,77.40
2023-03-03T03:44:43.815Z,77.35
2023-03-03T03:51:52.314Z,77.63
2023-03-03T03:55:08.939Z,77.63
2023-03-03T04:02:28.464Z,77.88
2023-03-03T04:09:37.326Z,77.74
2023-03-03T04:17:01.323Z,77.81
2023-03-03T04:19:33.939Z,77.73
2023-03-03T04:22:48.876Z,77.61
2023-03-03T04:25:30.170Z,77.63
2023-03-03T04:28:05.498Z,77.53
2023-03-03T04:31:34.309Z,77.95
2023-03-03T04:34:07.407Z,77.96
2023-03-03T04:36:47.295Z,78.35
2023-03-03T04:44:36.078Z,78.03
2023-03-03T04:47:15.245Z,78.21
2023-03-03T04:50:16.641Z,78.13
2023-03-03T04:58:27.274Z,78.48
2023-03-03T05:01:25.222Z,78.43
2023-03-03T05:04:09.741Z,78.43
2023-03-03T05:11:34.880Z,78.87
2023-03-03T05:15:12.647Z,78.81
2023-03-03T05:17:53.604Z,79.39
2023-03-03T05:21:14.959Z,79.47
2023-03-03T05:23:49.883Z,79.44
2023-03-03T05:26:22.376Z,79.60
2023-03-03T05:28:57.921Z,79.74
2023-03-03T05:36:32.728Z,80.17
2023-03-03T05:39:05.520Z,80.08
2023-03-03T05:41:44.355Z,80.22
2023-03-03T05:49:17.738Z,80.47
2023-03-03T05:51:56.427Z,80.82
2023-03-03T05:54:29.000Z,80.55
2023-03-03T05:57:38.241Z,80.69
2023-03-03T06:00:36.787Z,80.76
2023-03-03T06:04:01.113Z,81.12
2023-03-03T06:07:24.981Z,80.86
2023-03-03T06:10:56.207Z,80.79
2023-03-03T06:13:35.288Z,80.94
2023-03-03T06:16:41.701Z,81.10
2023-03-03T06:19:17.196Z,81.01
2023-03-03T06:22:42.395Z,80.93
2023-03-03T06:29:42.318Z,81.53
2023-03-03T06:32:15.471Z,81.48
2023-03-03T06:38:59.729Z,82.11
2023-03-03T06:54:31.239Z,82.04
2023-03-03T06:57:35.273Z,82.08
2023-03-03T07:00:34.563Z,82.14
2023-03-03T07:07:58.953Z,83.20
2023-03-03T07:10:32.495Z,82.69
2023-03-03T07:13:19.267Z,83.18
2023-03-03T07:15:53.692Z,83.21
2023-03-03T07:19:19.112Z,83.43
2023-03-03T07:21:54.148Z,83.92
2023-03-03T07:37:44.817Z,84.57
2023-03-03T07:41:40.934Z,83.92
2023-03-03T07:48:41.925Z,83.74
2023-03-03T07:51:45.466Z,83.98
2023-03-03T07:58:57.363Z,84.95
2023-03-03T08:11:20.633Z,85.00
2023-03-03T08:13:52.874Z,85.59
2023-03-03T08:17:05.653Z,84.73
2023-03-03T08:19:37.992Z,84.57
2023-03-03T08:22:57.671Z,84.11
2023-03-03T08:30:34.493Z,84.60
2023-03-03T08:33:30.656Z,84.39
2023-03-03T08:36:03.232Z,84.32
2023-03-03T08:38:46.682Z,84.10
2023-03-03T08:41:19.391Z,84.02
2023-03-03T08:43:52.144Z,84.11
2023-03-03T08:46:50.812Z,84.03
2023-03-03T08:49:54.552Z,83.98
2023-03-03T08:52:35.374Z,84.07
2023-03-03T08:55:37.662Z,84.23
2023-03-03T08:58:10.192Z,84.39
2023-03-03T09:00:42.660Z,84.30
2023-03-03T09:07:22.152Z,84.49
2023-03-03T09:14:15.263Z,84.32
2023-03-03T09:25:42.347Z,84.55
2023-03-03T09:32:50.122Z,85.08
2023-03-03T09:35:42.504Z,84.63
2023-03-03T09:52:00.777Z,84.66
2023-03-03T10:03:52.813Z,84.61
2023-03-03T10:07:37.554Z,84.54
2023-03-03T10:11:08.952Z,84.82
2023-03-03T10:31:05.552Z,85.13
2023-03-03T10:42:17.779Z,84.71
2023-03-03T11:02:42.801Z,84.10
2023-03-03T11:09:55.310Z,83.19
2023-03-03T11:12:41.367Z,83.26
2023-03-03T11:15:57.609Z,82.95
2023-03-03T11:29:04.827Z,82.34
2023-03-03T11:49:29.459Z,82.17
2023-03-03T11:56:17.593Z,81.48
2023-03-03T12:16:56.656Z,81.04
2023-03-03T12:39:45.884Z,81.50
2023-03-03T13:19:16.158Z,81.64
2023-03-03T13:26:24.795Z,81.56
2023-03-03T13:34:07.104Z,81.47
2023-03-03T13:36:54.143Z,81.90
2023-03-03T13:48:53.115Z,81.61
2023-03-03T13:51:45.431Z,81.64
2023-03-03T13:59:19.081Z,81.60
2023-03-03T14:23:20.187Z,81.93
2023-03-03T14:26:47.570Z,82.07
2023-03-03T14:29:34.067Z,81.89
2023-03-03T14:32:43.099Z,81.82
2023-03-03T14:35:22.119Z,81.79
2023-03-03T14:38:02.338Z,81.93
2023-03-03T14:40:44.038Z,81.80
2023-03-03T14:43:30.685Z,81.70
2023-03-03T14:46:42.236Z,81.63
2023-03-03T14:49:32.761Z,81.36
2023-03-03T14:52:12.527Z,81.30
2023-03-03T14:54:47.477Z,81.60
2023-03-03T14:57:21.365Z,81.64
2023-03-03T15:00:03.186Z,81.70
2023-03-03T15:02:38.931Z,81.59
2023-03-03T15:05:24.838Z,81.72
2023-03-03T15:07:59.347Z,82.04
2023-03-03T15:14:43.996Z,82.29
2023-03-03T15:28:51.792Z,82.54
2023-03-03T15:32:07.628Z,82.30
2023-03-03T15:34:45.878Z,82.20
2023-03-03T15:37:43.695Z,82.05
2023-03-03T15:40:27.252Z,82.62
2023-03-03T15:43:10.677Z,82.75
2023-03-03T15:45:52.745Z,82.66
2023-03-03T15:48:47.236Z,82.90
2023-03-03T15:51:32.533Z,82.76
2023-03-03T15:54:29.774Z,83.17
2023-03-03T15:57:06.294Z,83.19
2023-03-03T16:00:04.157Z,83.03
2023-03-03T16:02:52.026Z,82.97
2023-03-03T16:05:46.000Z,82.91
2023-03-03T16:08:24.526Z,82.95
2023-03-03T16:19:34.635Z,83.04
2023-03-03T16:22:42.243Z,83.21
2023-03-03T16:25:29.471Z,83.28
2023-03-03T16:28:07.659Z,83.33
2023-03-03T16:30:48.284Z,83.39
2023-03-03T16:33:22.926Z,83.31
2023-03-03T16:36:11.335Z,83.51
2023-03-03T16:38:46.780Z,83.67
2023-03-03T16:41:24.914Z,83.61
2023-03-03T16:44:13.642Z,83.31
2023-03-03T16:46:52.194Z,83.31
2023-03-03T16:49:30.835Z,83.57
2023-03-03T16:52:09.318Z,83.58
2023-03-03T16:54:54.536Z,83.54
2023-03-03T16:57:35.715Z,83.78
2023-03-03T17:00:13.983Z,83.93
2023-03-03T17:03:10.560Z,83.85
2023-03-03T17:05:51.460Z,83.79
2023-03-03T17:08:42.946Z,84.22
2023-03-03T17:11:35.080Z,83.90
2023-03-03T17:14:25.362Z,83.96
2023-03-03T17:17:01.581Z,84.18
2023-03-03T17:19:58.674Z,84.19
2023-03-03T17:22:42.739Z,84.37
2023-03-03T17:25:23.072Z,84.40
2023-03-03T17:28:09.767Z,84.53
2023-03-03T17:30:49.837Z,84.77
2023-03-03T17:33:55.082Z,84.26
2023-03-03T17:36:45.594Z,84.56
2023-03-03T17:39:42.571Z,84.73
2023-03-03T17:42:24.633Z,84.77
2023-03-03T17:45:05.884Z,84.62
2023-03-03T17:47:49.033Z,84.58
2023-03-03T17:50:53.229Z,84.42
2023-03-03T17:53:44.553Z,84.41
2023-03-03T17:56:22.663Z,84.70
2023-03-03T17:59:27.457Z,84.82
2023-03-03T18:02:30.512Z,84.73
2023-03-03T18:05:30.108Z,84.85
2023-03-03T18:08:20.934Z,84.87
2023-03-03T18:11:24.779Z,84.72
2023-03-03T18:14:37.054Z,84.85
2023-03-03T18:17:42.496Z,85.19
2023-03-03T18:20:43.116Z,85.12
2023-03-03T18:23:45.431Z,85.01
2023-03-03T18:26:37.223Z,85.37
2023-03-03T18:29:21.857Z,85.27
2023-03-03T18:32:06.267Z,85.70
2023-03-03T18:34:41.224Z,85.33
2023-03-03T18:37:40.486Z,85.12
2023-03-03T18:40:35.912Z,85.52
2023-03-03T18:43:49.544Z,85.50
2023-03-03T18:46:54.836Z,85.59
2023-03-03T18:50:06.759Z,86.17
2023-03-03T18:52:40.356Z,85.73
2023-03-03T18:55:27.841Z,85.68
2023-03-03T18:58:34.102Z,85.84
2023-03-03T19:01:43.026Z,85.89
2023-03-03T19:04:27.043Z,85.59
2023-03-03T19:07:27.686Z,85.84
2023-03-03T19:10:01.676Z,85.93
2023-03-03T19:12:57.915Z,85.84
2023-03-03T19:15:47.560Z,86.01
2023-03-03T19:18:23.894Z,85.94
2023-03-03T19:21:11.830Z,85.91
2023-03-03T19:24:01.005Z,86.12
2023-03-03T19:27:11.735Z,86.05
2023-03-03T19:29:59.674Z,86.20
2023-03-03T19:32:47.491Z,86.25
2023-03-03T19:35:29.877Z,86.11
2023-03-03T19:38:21.312Z,86.26
2023-03-03T19:41:27.883Z,86.29
2023-03-03T19:44:08.981Z,86.23
2023-03-03T19:46:56.432Z,86.34
2023-03-03T19:49:56.056Z,86.04
2023-03-03T19:52:44.270Z,86.09
2023-03-03T19:55:34.112Z,86.17
2023-03-03T19:58:29.475Z,86.23
2023-03-03T20:01:15.815Z,86.29
2023-03-03T20:07:58.576Z,86.49
2023-03-03T20:33:54.028Z,86.57
2023-03-03T20:50:30.551Z,86.31
2023-03-03T20:53:45.221Z,86.40
2023-03-03T21:12:35.653Z,86.35
2023-03-03T21:24:19.858Z,86.43
2023-03-03T21:36:02.291Z,86.52
2023-03-03T21:47:22.943Z,86.70
2023-03-03T21:50:46.666Z,87.21
2023-03-03T21:58:57.156Z,87.21
2023-03-03T22:01:29.519Z,87.81
2023-03-03T22:04:01.937Z,87.47
2023-03-03T22:07:28.743Z,87.52
2023-03-03T22:10:03.319Z,87.55
2023-03-03T22:18:05.456Z,87.86
2023-03-03T22:21:33.111Z,87.80
2023-03-03T22:28:55.775Z,87.70
2023-03-03T22:32:12.350Z,88.03
2023-03-03T22:35:18.583Z,87.82
2023-03-03T22:37:51.040Z,87.47
2023-03-03T22:40:23.474Z,87.59
2023-03-03T22:43:02.669Z,87.68
2023-03-03T22:45:35.120Z,87.84
2023-03-03T22:48:14.089Z,88.27
2023-03-03T22:50:47.604Z,87.68
2023-03-03T22:53:47.023Z,87.73
2023-03-03T22:56:19.350Z,88.22
2023-03-03T23:09:01.333Z,88.73
2023-03-03T23:15:24.953Z,88.65
2023-03-03T23:18:23.555Z,88.90
2023-03-03T23:21:02.791Z,88.88
2023-03-03T23:23:35.303Z,88.45
2023-03-03T23:26:43.784Z,88.30
2023-03-03T23:29:59.112Z,89.04
2023-03-03T23:33:03.744Z,89.14
2023-03-03T23:44:58.758Z,89.93
2023-03-03T23:47:31.659Z,89.45
2023-03-03T23:50:13.955Z,89.55
2023-03-03T23:53:36.638Z,89.36
2023-03-03T23:56:20.243Z,89.81
2023-03-03T23:59:18.691Z,90.25
